createdAt,value
2019-04-07T00:00:37.415Z,4.20
2019-04-07T00:03:41.299Z,4.40
2019-04-07T00:06:45.340Z,4.60
2019-04-07T00:09:49.291Z,4.70
2019-04-07T00:12:53.134Z,4.90
2019-04-07T00:15:57.444Z,5.00
2019-04-07T00:19:01.557Z,5.10
2019-04-07T00:22:05.507Z,5.20
2019-04-07T00:25:09.419Z,5.30
2019-04-07T00:28:13.326Z,5.50
2019-04-07T00:31:17.187Z,5.50
2019-04-07T00:34:22.107Z,5.70
2019-04-07T00:37:26.401Z,5.80
2019-04-07T00:40:30.590Z,5.80
2019-04-07T00:43:35.165Z,5.90
2019-04-07T00:46:39.741Z,6.00
2019-04-07T00:49:43.609Z,6.00
2019-04-07T00:52:47.991Z,6.00
2019-04-07T00:55:51.883Z,6.10
2019-04-07T00:58:55.800Z,6.10
2019-04-07T01:02:00.281Z,6.20
2019-04-07T01:05:04.996Z,6.20
2019-04-07T01:08:08.807Z,6.30
2019-04-07T01:11:12.666Z,6.30
2019-04-07T01:14:16.985Z,6.30
2019-04-07T01:17:21.535Z,6.20
2019-04-07T01:20:25.971Z,6.20
2019-04-07T01:23:29.923Z,6.30
2019-04-07T01:26:33.926Z,6.30
2019-04-07T01:29:37.815Z,6.40
2019-04-07T01:32:42.109Z,6.40
2019-04-07T01:35:48.673Z,6.40
2019-04-07T01:38:52.068Z,6.40
2019-04-07T01:42:00.537Z,6.40
2019-04-07T01:45:18.471Z,6.40
2019-04-07T01:48:26.893Z,6.40
2019-04-07T01:51:48.796Z,6.40
2019-04-07T01:55:10.479Z,6.40
2019-04-07T01:58:30.754Z,6.40
2019-04-07T02:01:45.142Z,6.30
2019-04-07T02:05:05.621Z,6.20
2019-04-07T02:08:20.094Z,6.00
2019-04-07T02:11:43.994Z,5.90
2019-04-07T02:14:58.384Z,5.90
2019-04-07T02:18:12.379Z,5.90
2019-04-07T02:21:18.369Z,6.00
2019-04-07T02:24:39.938Z,6.00
2019-04-07T02:27:57.258Z,6.10
2019-04-07T02:31:02.751Z,6.10
2019-04-07T02:34:08.129Z,6.10
2019-04-07T02:37:25.052Z,6.20
2019-04-07T02:40:36.074Z,6.30
2019-04-07T02:43:44.573Z,6.30
2019-04-07T02:46:53.424Z,6.40
2019-04-07T02:50:04.721Z,6.40
2019-04-07T02:53:11.069Z,6.40
2019-04-07T02:56:29.315Z,6.50
2019-04-07T02:59:53.462Z,6.50
2019-04-07T03:03:10.886Z,6.50
2019-04-07T03:06:37.605Z,6.50
2019-04-07T03:09:29.980Z,6.50
2019-04-07T03:12:35.471Z,6.50
2019-04-07T03:15:40.974Z,6.60
2019-04-07T03:19:04.475Z,6.60
2019-04-07T03:22:16.377Z,6.70
2019-04-07T03:25:21.784Z,6.70
2019-04-07T03:28:27.302Z,6.70
2019-04-07T03:31:33.047Z,6.70
2019-04-07T03:34:56.295Z,6.90
2019-04-07T03:38:18.975Z,6.90
2019-04-07T03:41:24.516Z,6.90
2019-04-07T03:44:38.724Z,7.00
2019-04-07T03:47:53.084Z,7.10
2019-04-07T03:50:59.988Z,7.20
2019-04-07T03:54:22.773Z,7.20
2019-04-07T03:57:46.363Z,7.20
2019-04-07T04:01:13.774Z,7.20
2019-04-07T04:04:24.713Z,7.30
2019-04-07T04:07:36.517Z,7.30
2019-04-07T04:10:45.564Z,7.30
2019-04-07T04:13:51.080Z,7.30
2019-04-07T04:16:55.029Z,7.30
2019-04-07T04:19:58.935Z,7.20
2019-04-07T04:23:03.827Z,7.30
2019-04-07T04:26:08.314Z,7.40
2019-04-07T04:29:12.330Z,7.50
2019-04-07T04:32:16.679Z,7.60
2019-04-07T04:35:20.536Z,7.70
2019-04-07T04:38:24.406Z,7.70
2019-04-07T04:41:28.234Z,7.80
2019-04-07T04:44:32.095Z,7.80
2019-04-07T04:47:35.916Z,7.80
2019-04-07T04:50:39.921Z,7.90
2019-04-07T04:53:44.270Z,7.90
2019-04-07T04:56:48.297Z,8.00
2019-04-07T04:59:53.942Z,8.00
2019-04-07T05:02:58.161Z,8.10
2019-04-07T05:06:02.388Z,8.20
2019-04-07T05:09:07.932Z,8.20
2019-04-07T05:12:11.761Z,8.40
2019-04-07T05:18:19.076Z,8.30
2019-04-07T05:21:22.999Z,8.40
2019-04-07T05:24:26.840Z,8.50
2019-04-07T05:27:30.738Z,8.60
2019-04-07T05:30:34.699Z,8.70
2019-04-07T05:33:38.543Z,8.70
2019-04-07T05:36:42.367Z,8.80
2019-04-07T05:39:46.338Z,8.80
2019-04-07T05:42:50.832Z,8.80
2019-04-07T05:45:55.463Z,8.80
2019-04-07T05:49:00.455Z,8.80
2019-04-07T05:55:09.824Z,8.70
2019-04-07T06:01:22.332Z,8.70
2019-04-07T06:04:24.909Z,8.90
2019-04-07T06:07:31.248Z,9.00
2019-04-07T06:10:34.888Z,9.00
2019-04-07T06:13:39.086Z,9.10
2019-04-07T06:16:43.532Z,9.10
2019-04-07T06:19:47.411Z,9.20
2019-04-07T06:22:53.623Z,9.30
2019-04-07T06:25:58.962Z,9.20
2019-04-07T06:29:02.645Z,9.30
2019-04-07T06:32:09.753Z,9.30
2019-04-07T06:35:13.917Z,9.30
2019-04-07T06:38:17.808Z,9.40
2019-04-07T06:41:21.782Z,9.40
2019-04-07T06:44:26.010Z,9.40
2019-04-07T06:47:32.870Z,9.40
2019-04-07T06:50:49.911Z,9.50
2019-04-07T06:53:54.284Z,9.40
2019-04-07T06:57:18.512Z,9.50
2019-04-07T07:00:30.041Z,9.50
2019-04-07T07:03:52.985Z,9.50
2019-04-07T07:07:16.778Z,9.50
2019-04-07T07:10:29.006Z,9.60
2019-04-07T07:13:34.787Z,9.70
2019-04-07T07:16:42.681Z,9.70
2019-04-07T07:20:01.329Z,9.80
2019-04-07T07:23:07.613Z,9.90
2019-04-07T07:26:11.632Z,9.90
2019-04-07T07:32:20.625Z,9.90
2019-04-07T07:35:24.541Z,9.80
2019-04-07T07:38:31.074Z,9.80
2019-04-07T07:41:34.476Z,9.70
2019-04-07T07:44:39.674Z,9.80
2019-04-07T07:50:47.849Z,9.70
2019-04-07T07:53:52.640Z,9.50
2019-04-07T08:00:04.546Z,9.70
2019-04-07T08:03:06.874Z,9.80
2019-04-07T08:06:10.851Z,10.00
2019-04-07T08:09:16.453Z,10.20
2019-04-07T08:12:20.629Z,10.40
2019-04-07T08:21:33.752Z,10.80
2019-04-07T08:24:37.642Z,10.50
2019-04-07T08:27:41.969Z,10.50
2019-04-07T08:30:47.540Z,10.50
2019-04-07T08:33:52.683Z,10.60
2019-04-07T08:36:57.384Z,10.50
2019-04-07T08:40:04.403Z,10.50
2019-04-07T08:43:07.206Z,10.60
2019-04-07T08:49:14.927Z,10.60
2019-04-07T08:52:19.468Z,10.60
2019-04-07T08:55:23.639Z,10.60
2019-04-07T08:58:29.852Z,10.50
2019-04-07T09:01:33.144Z,10.60
2019-04-07T09:26:42.832Z,11.50
2019-04-07T09:29:58.254Z,11.50
2019-04-07T09:33:21.551Z,11.60
2019-04-07T09:36:32.367Z,11.60
2019-04-07T09:39:59.172Z,11.40
2019-04-07T09:43:17.989Z,11.50
2019-04-07T09:46:26.416Z,11.90
2019-04-07T09:49:49.602Z,12.30
2019-04-07T09:56:21.658Z,12.70
